NEW MELONES RESERVOIR (NML)

Elevation: 1135' · STANISLAUS R basin · Operator: US Bureau of Reclamation

Provisional data, subject to change.
Query executed Sunday at 19:58:05   clock

Select a sensor type for a plot of data.
Note: Reservoir Flows are daily averages.

Earlier

Date RES ELE    STORAGE    RES CHG    TOC STO    ABV TOC    OUTFLOW    INFLOW    EVAP    FNF    RIV REL    PPT INC    SPILL    DIS PWR   
 FEET   AF   AF   AF   AF   CFS   CFS   CFS   CFS   CFS   INCHES   CFS   CFS  
04/30/2016 882.01 622143 -268 2232500 -1610357 1924 1831 42 1849 0 0.05 0 1924
05/01/2016 881.92 621662 -481 2238750 -1617088 1925 1737 55 1768 0 0.00 0 1925
05/02/2016 881.47 619263 -2399 2245000 -1625737 3092 1928 45 2009 0 0.00 0 3092
05/03/2016 880.82 615802 -3461 2251250 -1635448 3750 2057 52 2274 0 0.00 0 3750
05/04/2016 880.59 614583 -1219 2257500 -1642917 2412 1833 36 2161 0 0.00 0 2412
05/05/2016 879.94 611138 -3445 2263750 -1652612 3701 2000 36 2429 0 0.00 0 3701
05/06/2016 879.48 608712 -2426 2270000 -1661288 3261 2064 26 2531 0 0.00 0 3261
05/07/2016 879.54 609028 316 2276250 -1667222 2111 2275 5 2775 0 0.08 0 2111
05/08/2016 879.47 608659 -369 2282500 -1673841 2192 2015 9 2371 0 0.06 0 2192
05/09/2016 878.94 605865 -2794 2288750 -1682885 3491 2109 27 2574 0 0.00 0 3491
05/10/2016 878.39 602979 -2886 2295000 -1692021 3364 1953 44 2903 0 0.00 0 3364
05/11/2016 878.40 603032 53 2301250 -1698218 2159 2225 39 3321 0 0.00 0 2159
05/12/2016 878.28 602402 -630 2307500 -1705098 2491 2212 39 3541 0 0.00 0 2491
05/13/2016 878.29 602455 53 2313750 -1711295 2532 2610 51 3457 0 0.00 0 2532
05/14/2016 878.93 605813 3358 2320000 -1714187 2207 3966 66 4164 0 0.00 0 2207
05/15/2016 879.91 610979 5166 2326250 -1715271 1522 4193 67 3919 0 0.00 0 1522
05/16/2016 880.69 615113 4134 2332500 -1717387 1933 4084 67 3655 0 0.01 0 1933
05/17/2016 881.24 618037 2924 2338750 -1720713 1864 3405 67 3256 0 0.00 0 1864
05/18/2016 881.50 619423 1386 2345000 -1725577 2296 3059 64 3223 0 0.00 0 2296
05/19/2016 881.98 621982 2559 2351250 -1729268 1439 2793 64 3248 0 0.00 0 1439
05/20/2016 882.23 623322 1340 2357500 -1734178 2099 2865 90 3203 0 0.00 0 2099
05/21/2016 882.64 625519 2197 2363750 -1738231 1831 2984 45 2586 0 0.00 0 1831
05/22/2016 882.93 627074 1555 2370000 -1742926 1668 2501 49 2102 0 0.00 0 1668
05/23/2016 882.77 626216 -858 2376250 -1750034 2208 1824 49 1856 0 0.00 0 2208
05/24/2016 882.42 624340 -1876 2382500 -1758160 2326 1413 33 1706 0 0.00 0 2326
05/25/2016 882.21 623215 -1125 2388750 -1765535 1844 1315 38 1507 0 0.00 0 1844
05/26/2016 881.95 621822 -1393 2395000 -1773178 2013 1358 47 1558 0 0.00 0 2013
05/27/2016 881.83 621183 -639 2401250 -1780067 1672 1414 64 1722 0 0.00 0 1672
05/28/2016 881.75 620756 -427 2407500 -1786744 1820 1669 64 2144 0 0.00 0 1820
05/29/2016 -- -- -- -- -- -- -- -- -- -- -- -- --

Later | Latest

Warning! This data is preliminary and subject to revision.

Show NML Map | Plot NML Data | 1 Month NML Data | Real-Time NML Data | NML Info